createdAt,value
2022-11-25T00:00:53.133Z,101054.47
2022-11-25T00:03:19.572Z,101057.78
2022-11-25T00:05:45.967Z,101048.41
2022-11-25T00:08:12.304Z,101052.03
2022-11-25T00:10:38.649Z,101052.03
2022-11-25T00:13:05.031Z,101052.03
2022-11-25T00:15:31.459Z,101045.53
2022-11-25T00:17:57.804Z,101050.38
2022-11-25T00:20:24.120Z,101051.84
2022-11-25T00:22:50.465Z,101051.84
2022-11-25T00:25:16.787Z,101041.81
2022-11-25T00:27:43.110Z,101050.47
2022-11-25T00:30:09.657Z,101044.59
2022-11-25T00:32:35.971Z,101036.06
2022-11-25T00:35:02.302Z,101041.72
2022-11-25T00:37:28.616Z,101043.03
2022-11-25T00:39:54.933Z,101041.63
2022-11-25T00:42:39.732Z,101046.66
2022-11-25T00:45:06.290Z,101059.00
2022-11-25T00:47:32.601Z,101054.72
2022-11-25T00:49:58.929Z,101054.91
2022-11-25T00:52:25.830Z,101054.81
2022-11-25T00:54:52.636Z,101060.03
2022-11-25T00:57:19.401Z,101062.25
2022-11-25T00:59:45.859Z,101059.44
2022-11-25T01:02:12.468Z,101057.97
2022-11-25T01:04:38.872Z,101055.75
2022-11-25T01:07:05.244Z,101048.50
2022-11-25T01:09:31.559Z,101047.69
2022-11-25T01:11:57.873Z,101053.34
2022-11-25T01:14:24.202Z,101054.91
2022-11-25T01:16:50.566Z,101058.38
2022-11-25T01:19:17.504Z,101051.09
2022-11-25T01:21:43.824Z,101051.69
2022-11-25T01:24:11.906Z,101056.13
2022-11-25T01:26:38.221Z,101046.66
2022-11-25T01:29:05.349Z,101035.88
2022-11-25T01:31:34.536Z,101044.41
2022-11-25T01:34:01.737Z,101041.31
2022-11-25T01:36:28.073Z,101042.91
2022-11-25T01:38:55.021Z,101035.66
2022-11-25T01:41:21.620Z,101029.16
2022-11-25T01:44:06.205Z,101029.16
2022-11-25T01:46:39.011Z,101025.44
2022-11-25T01:49:06.403Z,101020.97
2022-11-25T01:51:35.512Z,101015.41
2022-11-25T01:54:02.399Z,101013.91
2022-11-25T01:56:28.774Z,101010.94
2022-11-25T01:58:55.130Z,101020.91
2022-11-25T02:01:21.896Z,101020.81
2022-11-25T02:03:48.939Z,101015.22
2022-11-25T02:06:23.192Z,101009.44
2022-11-25T02:08:50.271Z,101012.25
2022-11-25T02:11:17.530Z,101015.22
2022-11-25T02:13:43.877Z,101015.41
2022-11-25T02:16:10.296Z,101017.75
2022-11-25T02:18:36.680Z,101024.72
2022-11-25T02:21:04.571Z,101031.66
2022-11-25T02:23:33.712Z,101035.13
2022-11-25T02:26:00.107Z,101033.81
2022-11-25T02:28:27.801Z,101028.63
2022-11-25T02:30:54.167Z,101020.53
2022-11-25T02:33:22.364Z,101029.16
2022-11-25T02:35:58.563Z,101036.22
2022-11-25T02:38:30.765Z,101045.50
2022-11-25T02:40:57.021Z,101051.28
2022-11-25T02:43:23.518Z,101050.53
2022-11-25T02:45:56.664Z,101045.50
2022-11-25T02:48:39.706Z,101041.91
2022-11-25T02:51:10.435Z,101043.38
2022-11-25T02:53:36.857Z,101043.28
2022-11-25T02:56:03.883Z,101046.81
2022-11-25T02:58:30.253Z,101037.91
2022-11-25T03:00:56.609Z,101040.56
2022-11-25T03:03:22.988Z,101049.97
2022-11-25T03:05:49.327Z,101044.88
2022-11-25T03:08:15.707Z,101045.59
2022-11-25T03:10:42.065Z,101034.91
2022-11-25T03:13:08.543Z,101032.50
2022-11-25T03:15:39.086Z,101044.03
2022-11-25T03:18:05.491Z,101036.78
2022-11-25T03:20:32.399Z,101045.41
2022-11-25T03:22:58.730Z,101036.78
2022-11-25T03:25:25.086Z,101041.16
2022-11-25T03:27:51.425Z,101039.84
2022-11-25T03:30:19.887Z,101036.78
2022-11-25T03:32:47.613Z,101045.50
2022-11-25T03:35:14.385Z,101043.47
2022-11-25T03:37:40.737Z,101045.06
2022-11-25T03:40:08.107Z,101047.47
2022-11-25T03:42:34.569Z,101041.81
2022-11-25T03:45:01.095Z,101049.88
2022-11-25T03:47:27.667Z,101053.50
2022-11-25T03:49:54.066Z,101057.97
2022-11-25T03:52:20.692Z,101050.06
2022-11-25T03:54:47.107Z,101052.19
2022-11-25T03:57:19.278Z,101053.69
2022-11-25T03:59:45.611Z,101055.19
2022-11-25T04:02:12.042Z,101052.94
2022-11-25T04:04:38.518Z,101050.88
2022-11-25T04:07:04.957Z,101045.13
2022-11-25T04:09:31.447Z,101046.53
2022-11-25T04:12:18.829Z,101049.50
2022-11-25T04:14:54.920Z,101040.97
2022-11-25T04:17:21.312Z,101040.31
2022-11-25T04:19:47.714Z,101032.41
2022-11-25T04:22:14.092Z,101033.81
2022-11-25T04:24:43.550Z,101039.56
2022-11-25T04:27:12.371Z,101036.69
2022-11-25T04:29:38.725Z,101046.81
2022-11-25T04:32:05.101Z,101045.31
2022-11-25T04:34:31.889Z,101050.44
2022-11-25T04:36:59.290Z,101053.41
2022-11-25T04:39:25.954Z,101051.28
2022-11-25T04:42:16.634Z,101065.09
2022-11-25T04:44:52.082Z,101060.00
2022-11-25T04:47:29.025Z,101060.00
2022-11-25T04:49:55.491Z,101060.00
2022-11-25T04:52:22.391Z,101055.00
2022-11-25T04:54:48.841Z,101061.28
2022-11-25T04:57:15.586Z,101061.28
2022-11-25T04:59:44.497Z,101056.94
2022-11-25T05:02:16.901Z,101059.91
2022-11-25T05:04:52.635Z,101059.19
2022-11-25T05:07:20.662Z,101061.47
2022-11-25T05:09:49.515Z,101065.78
2022-11-25T05:12:22.173Z,101062.97
2022-11-25T05:14:48.582Z,101070.22
2022-11-25T05:17:16.313Z,101067.16
2022-11-25T05:19:43.124Z,101068.06
2022-11-25T05:22:10.573Z,101064.38
2022-11-25T05:24:37.141Z,101070.13
2022-11-25T05:27:03.715Z,101065.09
2022-11-25T05:29:30.101Z,101059.56
2022-11-25T05:31:56.791Z,101067.75
2022-11-25T05:34:23.158Z,101067.84
2022-11-25T05:36:49.490Z,101068.59
2022-11-25T05:39:15.936Z,101060.66
2022-11-25T05:42:05.235Z,101067.84
2022-11-25T05:44:31.630Z,101069.31
2022-11-25T05:46:57.977Z,101067.16
2022-11-25T05:49:24.313Z,101064.97
2022-11-25T05:51:50.819Z,101064.97
2022-11-25T05:54:19.460Z,101059.84
2022-11-25T05:56:45.863Z,101063.38
2022-11-25T05:59:30.785Z,101065.41
2022-11-25T06:02:04.397Z,101063.38
2022-11-25T06:04:31.319Z,101073.88
2022-11-25T06:06:57.647Z,101085.03
2022-11-25T06:09:24.004Z,101080.75
2022-11-25T06:11:51.004Z,101075.19
2022-11-25T06:14:18.133Z,101072.13
2022-11-25T06:16:46.196Z,101070.63
2022-11-25T06:19:32.442Z,101070.78
2022-11-25T06:21:58.790Z,101066.09
2022-11-25T06:24:27.032Z,101066.88
2022-11-25T06:26:58.654Z,101068.72
2022-11-25T06:29:24.995Z,101073.28
2022-11-25T06:31:51.658Z,101080.25
2022-11-25T06:34:42.723Z,101082.50
2022-11-25T06:37:23.748Z,101095.38
2022-11-25T06:39:50.083Z,101084.69
2022-11-25T06:42:16.389Z,101093.44
2022-11-25T06:44:42.727Z,101093.63
2022-11-25T06:47:09.046Z,101102.28
2022-11-25T06:49:35.371Z,101096.22
2022-11-25T06:52:01.704Z,101110.50
2022-11-25T06:54:28.034Z,101115.16
2022-11-25T06:56:54.356Z,101118.16
2022-11-25T06:59:20.850Z,101114.88
2022-11-25T07:01:47.212Z,101126.19
2022-11-25T07:04:13.586Z,101121.56
2022-11-25T07:06:39.905Z,101125.44
2022-11-25T07:09:06.233Z,101134.94
2022-11-25T07:11:33.290Z,101125.59
2022-11-25T07:14:00.174Z,101130.06
2022-11-25T07:16:26.581Z,101134.50
2022-11-25T07:18:52.973Z,101128.00
2022-11-25T07:21:20.577Z,101139.00
2022-11-25T07:23:46.935Z,101132.56
2022-11-25T07:26:18.241Z,101139.16
2022-11-25T07:28:44.554Z,101138.44
2022-11-25T07:31:32.126Z,101136.19
2022-11-25T07:34:06.301Z,101133.59
2022-11-25T07:36:32.752Z,101126.38
2022-11-25T07:38:59.621Z,101132.88
2022-11-25T07:41:26.103Z,101133.72
2022-11-25T07:43:53.172Z,101136.59
2022-11-25T07:46:27.359Z,101145.34
2022-11-25T07:48:54.547Z,101143.88
2022-11-25T07:51:21.639Z,101137.44
2022-11-25T07:53:47.996Z,101136.78
2022-11-25T07:56:14.503Z,101136.78
2022-11-25T07:58:45.729Z,101134.66
2022-11-25T08:01:12.616Z,101134.38
2022-11-25T08:03:39.655Z,101134.91
2022-11-25T08:06:09.749Z,101144.34
2022-11-25T08:08:36.088Z,101148.44
2022-11-25T08:11:05.883Z,101149.34
2022-11-25T08:13:32.611Z,101161.06
2022-11-25T08:15:59.314Z,101153.97
2022-11-25T08:18:25.734Z,101159.19
2022-11-25T08:20:52.062Z,101156.56
2022-11-25T08:23:18.382Z,101160.09
2022-11-25T08:25:50.088Z,101158.78
2022-11-25T08:28:16.852Z,101158.22
2022-11-25T08:30:43.205Z,101155.34
2022-11-25T08:33:09.538Z,101163.25
2022-11-25T08:35:38.709Z,101152.63
2022-11-25T08:38:05.726Z,101166.38
2022-11-25T08:40:32.622Z,101169.44
2022-11-25T08:42:59.015Z,101161.69
2022-11-25T08:45:25.333Z,101159.41
2022-11-25T08:47:51.649Z,101155.28
2022-11-25T08:50:17.960Z,101165.25
2022-11-25T08:52:44.317Z,101169.72
2022-11-25T08:55:10.701Z,101165.25
2022-11-25T08:57:37.016Z,101161.69
2022-11-25T09:00:04.588Z,101162.59
2022-11-25T09:02:30.922Z,101159.91
2022-11-25T09:04:57.295Z,101162.97
2022-11-25T09:07:29.156Z,101161.44
2022-11-25T09:09:56.980Z,101171.38
2022-11-25T09:12:23.306Z,101170.00
2022-11-25T09:14:49.632Z,101174.44
2022-11-25T09:17:16.423Z,101168.28
2022-11-25T09:19:42.748Z,101168.13
2022-11-25T09:22:09.136Z,101164.31
2022-11-25T09:24:35.807Z,101169.66
2022-11-25T09:27:02.164Z,101169.47
2022-11-25T09:29:30.108Z,101163.22
2022-11-25T09:31:56.911Z,101156.44
2022-11-25T09:34:23.284Z,101163.13
2022-11-25T09:36:49.614Z,101161.28
2022-11-25T09:39:15.977Z,101166.88
2022-11-25T09:42:16.264Z,101163.44
2022-11-25T09:45:06.539Z,101160.06
2022-11-25T09:47:57.055Z,101155.91
2022-11-25T09:50:42.385Z,101157.38
2022-11-25T09:53:08.619Z,101157.38
2022-11-25T09:55:39.792Z,101153.09
2022-11-25T09:58:16.230Z,101153.84
2022-11-25T10:00:46.191Z,101152.47
2022-11-25T10:03:15.487Z,101160.34
2022-11-25T10:05:42.833Z,101158.97
2022-11-25T10:08:19.328Z,101161.13
2022-11-25T10:10:50.954Z,101166.13
2022-11-25T10:13:19.388Z,101166.13
2022-11-25T10:15:46.865Z,101169.66
2022-11-25T10:18:21.204Z,101173.19
2022-11-25T10:20:47.650Z,101167.44
2022-11-25T10:23:32.353Z,101168.91
2022-11-25T10:25:59.428Z,101164.63
2022-11-25T10:28:29.641Z,101171.88
2022-11-25T10:31:00.985Z,101170.50
2022-11-25T10:33:28.411Z,101164.63
2022-11-25T10:35:58.944Z,101160.34
2022-11-25T10:38:29.857Z,101164.72
2022-11-25T10:40:56.176Z,101160.34
2022-11-25T10:43:26.000Z,101163.22
2022-11-25T10:46:07.480Z,101166.13
2022-11-25T10:48:44.314Z,101168.53
2022-11-25T10:51:32.013Z,101157.91
2022-11-25T10:54:11.386Z,101155.56
2022-11-25T10:56:53.767Z,101159.09
2022-11-25T10:59:23.160Z,101163.75
2022-11-25T11:01:50.931Z,101153.69
2022-11-25T11:04:18.968Z,101153.22
2022-11-25T11:06:45.996Z,101159.56
2022-11-25T11:09:34.780Z,101159.44
2022-11-25T11:12:14.860Z,101148.88
2022-11-25T11:14:41.169Z,101154.41
2022-11-25T11:17:08.697Z,101151.47
2022-11-25T11:19:35.033Z,101146.81
2022-11-25T11:22:16.960Z,101148.34
2022-11-25T11:24:43.294Z,101152.72
2022-11-25T11:27:09.537Z,101145.63
2022-11-25T11:29:35.973Z,101139.59
2022-11-25T11:32:05.538Z,101143.41
2022-11-25T11:34:44.086Z,101140.88
2022-11-25T11:37:10.341Z,101139.50
2022-11-25T11:39:42.840Z,101135.28
2022-11-25T11:42:09.087Z,101128.25
2022-11-25T11:44:53.180Z,101124.06
2022-11-25T11:47:27.249Z,101133.72
2022-11-25T11:50:12.354Z,101127.59
2022-11-25T11:52:57.722Z,101123.28
2022-11-25T11:55:36.683Z,101122.41
2022-11-25T11:58:14.606Z,101116.63
2022-11-25T12:00:45.535Z,101117.44
2022-11-25T12:03:13.263Z,101117.09
2022-11-25T12:05:39.651Z,101115.31
2022-11-25T12:08:10.366Z,101119.44
2022-11-25T12:10:38.058Z,101127.78
2022-11-25T12:13:04.358Z,101119.13
2022-11-25T12:15:35.593Z,101128.34
2022-11-25T12:18:02.821Z,101117.88
2022-11-25T12:20:35.922Z,101122.41
2022-11-25T12:23:04.093Z,101135.69
2022-11-25T12:25:31.289Z,101132.56
2022-11-25T12:28:01.669Z,101137.91
2022-11-25T12:31:01.875Z,101136.91
2022-11-25T12:33:36.738Z,101131.72
2022-11-25T12:36:04.485Z,101133.19
2022-11-25T12:38:38.076Z,101127.41
2022-11-25T12:41:24.955Z,101123.16
2022-11-25T12:44:01.673Z,101126.03
2022-11-25T12:46:35.607Z,101132.00
2022-11-25T12:49:01.990Z,101125.66
2022-11-25T12:51:38.301Z,101128.63
2022-11-25T12:54:23.205Z,101127.22
2022-11-25T12:56:55.156Z,101134.97
2022-11-25T12:59:31.627Z,101142.78
2022-11-25T13:02:04.978Z,101131.16
2022-11-25T13:04:43.225Z,101141.22
2022-11-25T13:07:19.394Z,101124.78
2022-11-25T13:10:01.661Z,101129.66
2022-11-25T13:12:30.849Z,101134.03
2022-11-25T13:15:01.043Z,101135.63
2022-11-25T13:17:29.017Z,101143.31
2022-11-25T13:20:14.363Z,101137.34
2022-11-25T13:22:40.682Z,101149.22
2022-11-25T13:25:21.458Z,101142.78
2022-11-25T13:27:47.712Z,101140.50
2022-11-25T13:30:32.304Z,101155.59
2022-11-25T13:33:27.931Z,101150.25
2022-11-25T13:35:54.483Z,101154.38
2022-11-25T13:38:29.799Z,101154.78
2022-11-25T13:40:56.699Z,101155.69
2022-11-25T13:43:23.052Z,101157.81
2022-11-25T13:45:49.507Z,101161.94
2022-11-25T13:48:17.951Z,101167.00
2022-11-25T13:51:09.364Z,101168.13
2022-11-25T13:53:32.493Z,101174.84
2022-11-25T13:56:12.196Z,101167.06
2022-11-25T13:58:38.561Z,101182.53
2022-11-25T14:01:05.875Z,101175.84
2022-11-25T14:03:32.171Z,101171.88
2022-11-25T14:06:00.496Z,101178.38
2022-11-25T14:08:26.726Z,101177.81
2022-11-25T14:10:55.843Z,101181.09
2022-11-25T14:13:29.278Z,101186.72
2022-11-25T14:16:06.919Z,101190.28
2022-11-25T14:19:16.812Z,101186.94
2022-11-25T14:21:31.548Z,101194.72
2022-11-25T14:24:03.047Z,101195.44
2022-11-25T14:26:49.153Z,101195.44
2022-11-25T14:29:30.048Z,101202.09
2022-11-25T14:32:00.673Z,101202.56
2022-11-25T14:34:27.895Z,101200.44
2022-11-25T14:36:54.806Z,101209.94
2022-11-25T14:39:22.853Z,101207.69
2022-11-25T14:41:58.831Z,101202.09
2022-11-25T14:44:26.733Z,101197.94
2022-11-25T14:46:53.719Z,101202.41
2022-11-25T14:49:44.851Z,101208.94
2022-11-25T14:52:06.395Z,101207.84
2022-11-25T14:54:32.710Z,101217.44
2022-11-25T14:56:59.065Z,101220.88
2022-11-25T14:59:25.401Z,101226.66
2022-11-25T15:01:53.245Z,101227.38
2022-11-25T15:04:25.136Z,101223.28
2022-11-25T15:06:56.723Z,101224.44
2022-11-25T15:09:29.841Z,101230.13
2022-11-25T15:11:59.660Z,101226.41
2022-11-25T15:14:29.808Z,101234.78
2022-11-25T15:16:56.342Z,101233.44
2022-11-25T15:19:25.308Z,101237.75
2022-11-25T15:22:22.899Z,101242.94
2022-11-25T15:24:54.519Z,101243.59
2022-11-25T15:27:24.966Z,101247.97
2022-11-25T15:29:51.488Z,101244.56
2022-11-25T15:32:22.873Z,101250.50
2022-11-25T15:34:49.200Z,101239.84
2022-11-25T15:37:15.563Z,101240.28
2022-11-25T15:39:41.914Z,101246.63
2022-11-25T15:42:15.387Z,101242.34
2022-11-25T15:44:46.517Z,101243.91
2022-11-25T15:47:20.636Z,101243.41
2022-11-25T15:49:47.913Z,101245.97
2022-11-25T15:52:15.973Z,101247.44
2022-11-25T15:54:43.031Z,101255.47
2022-11-25T15:57:27.293Z,101255.22
2022-11-25T15:59:53.528Z,101255.22
2022-11-25T16:02:39.042Z,101255.16
2022-11-25T16:05:14.824Z,101253.50
2022-11-25T16:07:41.128Z,101254.22
2022-11-25T16:10:23.633Z,101257.19
2022-11-25T16:13:20.932Z,101255.81
2022-11-25T16:15:51.865Z,101253.50
2022-11-25T16:18:39.151Z,101253.91
2022-11-25T16:21:05.461Z,101254.66
2022-11-25T16:23:38.825Z,101262.69
2022-11-25T16:26:15.229Z,101260.69
2022-11-25T16:28:41.966Z,101268.75
2022-11-25T16:31:13.165Z,101268.19
2022-11-25T16:33:39.605Z,101266.59
2022-11-25T16:36:09.532Z,101275.38
2022-11-25T16:38:36.045Z,101276.19
2022-11-25T16:41:09.198Z,101282.72
2022-11-25T16:43:36.964Z,101278.50
2022-11-25T16:46:03.371Z,101280.03
2022-11-25T16:48:29.844Z,101286.41
2022-11-25T16:50:56.162Z,101276.94
2022-11-25T16:53:22.531Z,101279.41
2022-11-25T16:55:49.495Z,101276.25
2022-11-25T16:58:17.079Z,101281.47
2022-11-25T17:00:43.715Z,101281.94
2022-11-25T17:03:11.516Z,101282.22
2022-11-25T17:05:40.661Z,101278.63
2022-11-25T17:08:07.078Z,101273.78
2022-11-25T17:10:42.400Z,101287.34
2022-11-25T17:13:10.534Z,101283.22
2022-11-25T17:15:37.016Z,101290.25
2022-11-25T17:18:03.540Z,101293.94
2022-11-25T17:20:29.869Z,101297.75
2022-11-25T17:22:56.265Z,101293.56
2022-11-25T17:25:22.658Z,101302.16
2022-11-25T17:27:49.022Z,101301.63
2022-11-25T17:30:15.267Z,101299.50
2022-11-25T17:32:41.590Z,101308.47
2022-11-25T17:35:18.102Z,101301.31
2022-11-25T17:37:44.473Z,101316.06
2022-11-25T17:40:11.180Z,101309.50
2022-11-25T17:42:37.505Z,101312.72
2022-11-25T17:45:03.893Z,101311.91
2022-11-25T17:47:30.272Z,101319.47
2022-11-25T17:49:57.747Z,101312.41
2022-11-25T17:52:24.098Z,101323.94
2022-11-25T17:54:50.443Z,101319.53
2022-11-25T17:57:17.751Z,101324.41
2022-11-25T17:59:44.070Z,101328.91
2022-11-25T18:02:18.140Z,101331.25
2022-11-25T18:04:44.499Z,101327.88
2022-11-25T18:07:10.887Z,101330.13
2022-11-25T18:09:37.232Z,101328.69
2022-11-25T18:12:06.071Z,101341.56
2022-11-25T18:14:33.217Z,101338.03
2022-11-25T18:17:03.917Z,101338.78
2022-11-25T18:19:30.293Z,101342.50
2022-11-25T18:22:00.451Z,101344.28
2022-11-25T18:24:26.771Z,101348.56
2022-11-25T18:26:54.053Z,101339.69
2022-11-25T18:29:23.020Z,101346.94
2022-11-25T18:31:49.972Z,101346.94
2022-11-25T18:34:16.480Z,101347.91
2022-11-25T18:36:42.806Z,101342.28
2022-11-25T18:39:09.853Z,101350.13
2022-11-25T18:41:36.175Z,101348.16
2022-11-25T18:44:02.697Z,101359.63
2022-11-25T18:46:33.640Z,101365.69
2022-11-25T18:48:59.988Z,101367.97
2022-11-25T18:51:26.296Z,101364.75
2022-11-25T18:53:52.660Z,101364.91
2022-11-25T18:56:19.003Z,101374.31
2022-11-25T18:58:45.948Z,101381.56
2022-11-25T19:01:12.736Z,101374.97
2022-11-25T19:03:39.085Z,101379.88
2022-11-25T19:06:05.582Z,101387.06
2022-11-25T19:08:31.986Z,101378.50
2022-11-25T19:10:58.300Z,101387.16
2022-11-25T19:13:28.555Z,101395.81
2022-11-25T19:15:54.910Z,101388.72
2022-11-25T19:18:24.843Z,101390.03
2022-11-25T19:20:51.164Z,101398.22
2022-11-25T19:23:18.383Z,101394.16
2022-11-25T19:25:44.788Z,101407.19
2022-11-25T19:28:11.441Z,101407.28
2022-11-25T19:30:37.776Z,101410.16
2022-11-25T19:33:04.133Z,101405.84
2022-11-25T19:35:35.128Z,101420.22
2022-11-25T19:38:01.453Z,101421.50
2022-11-25T19:40:32.406Z,101417.34
2022-11-25T19:43:02.546Z,101427.28
2022-11-25T19:45:29.434Z,101427.94
2022-11-25T19:47:55.809Z,101431.56
2022-11-25T19:50:25.956Z,101437.88
2022-11-25T19:52:52.346Z,101440.69
2022-11-25T19:55:18.679Z,101444.22
2022-11-25T19:57:45.157Z,101446.28
2022-11-25T20:00:12.222Z,101448.31
2022-11-25T20:02:38.647Z,101454.84
2022-11-25T20:05:05.269Z,101456.69
2022-11-25T20:07:32.164Z,101451.75
2022-11-25T20:09:59.319Z,101458.16
2022-11-25T20:12:26.814Z,101465.34
2022-11-25T20:14:53.134Z,101466.72
2022-11-25T20:17:24.435Z,101468.03
2022-11-25T20:19:51.630Z,101475.84
2022-11-25T20:22:22.908Z,101482.25
2022-11-25T20:24:49.301Z,101485.81
2022-11-25T20:27:15.619Z,101481.50
2022-11-25T20:29:41.964Z,101490.81
2022-11-25T20:32:28.041Z,101497.97
2022-11-25T20:34:57.545Z,101498.72
2022-11-25T20:37:24.362Z,101503.63
2022-11-25T20:39:54.124Z,101502.16
2022-11-25T20:42:20.604Z,101503.50
2022-11-25T20:44:47.166Z,101506.31
2022-11-25T20:47:14.370Z,101509.75
2022-11-25T20:49:40.700Z,101514.84
2022-11-25T20:52:07.065Z,101519.88
2022-11-25T20:54:36.084Z,101519.88
2022-11-25T20:57:02.849Z,101528.44
2022-11-25T20:59:30.960Z,101534.09
2022-11-25T21:01:57.475Z,101526.19
2022-11-25T21:04:23.910Z,101530.47
2022-11-25T21:06:50.222Z,101526.84
2022-11-25T21:09:17.600Z,101534.00
2022-11-25T21:11:43.924Z,101530.47
2022-11-25T21:14:12.004Z,101533.25
2022-11-25T21:16:38.343Z,101532.41
2022-11-25T21:19:04.715Z,101541.06
2022-11-25T21:21:34.344Z,101545.88
2022-11-25T21:24:02.849Z,101535.81
2022-11-25T21:26:29.627Z,101543.00
2022-11-25T21:28:55.977Z,101542.34
2022-11-25T21:31:23.087Z,101553.13
2022-11-25T21:33:49.496Z,101554.63
2022-11-25T21:36:22.406Z,101550.16
2022-11-25T21:38:49.392Z,101561.69
2022-11-25T21:41:15.727Z,101554.41
2022-11-25T21:43:42.862Z,101558.81
2022-11-25T21:46:13.112Z,101554.41
2022-11-25T21:48:39.857Z,101560.19
2022-11-25T21:51:06.167Z,101560.81
2022-11-25T21:53:37.134Z,101557.19
2022-11-25T21:56:03.894Z,101562.97
2022-11-25T21:58:30.221Z,101567.25
2022-11-25T22:01:00.252Z,101570.03
2022-11-25T22:03:29.011Z,101569.81
2022-11-25T22:05:55.342Z,101577.16
2022-11-25T22:08:21.895Z,101584.97
2022-11-25T22:10:48.633Z,101579.88
2022-11-25T22:13:15.502Z,101582.66
2022-11-25T22:15:41.847Z,101590.63
2022-11-25T22:18:09.182Z,101593.97
2022-11-25T22:20:36.187Z,101588.94
2022-11-25T22:23:02.514Z,101601.22
2022-11-25T22:25:29.319Z,101605.50
2022-11-25T22:27:55.637Z,101605.38
2022-11-25T22:30:22.057Z,101606.78
2022-11-25T22:32:55.206Z,101613.94
2022-11-25T22:35:21.658Z,101618.22
2022-11-25T22:37:53.558Z,101619.06
2022-11-25T22:40:21.433Z,101622.56
2022-11-25T22:42:47.966Z,101622.25
2022-11-25T22:45:24.265Z,101623.00
2022-11-25T22:47:50.604Z,101625.03
2022-11-25T22:50:16.831Z,101618.63
2022-11-25T22:52:43.147Z,101624.94
2022-11-25T22:55:19.838Z,101640.81
2022-11-25T22:57:46.673Z,101640.81
2022-11-25T23:00:16.601Z,101640.72
2022-11-25T23:02:42.910Z,101645.00
2022-11-25T23:05:16.617Z,101648.50
2022-11-25T23:07:43.121Z,101655.00
2022-11-25T23:10:16.471Z,101657.91
2022-11-25T23:12:42.796Z,101665.28
2022-11-25T23:15:11.936Z,101669.44
2022-11-25T23:17:38.253Z,101670.09
2022-11-25T23:20:06.747Z,101660.66
2022-11-25T23:22:33.062Z,101669.22
2022-11-25T23:24:59.389Z,101669.13
2022-11-25T23:27:25.700Z,101673.47
2022-11-25T23:29:52.045Z,101677.66
2022-11-25T23:32:18.537Z,101677.66
2022-11-25T23:34:44.860Z,101675.50
2022-11-25T23:37:12.593Z,101669.97
2022-11-25T23:39:38.916Z,101670.59
2022-11-25T23:42:06.226Z,101669.84
2022-11-25T23:44:32.605Z,101677.75
2022-11-25T23:47:00.045Z,101680.41
2022-11-25T23:49:27.566Z,101684.66
2022-11-25T23:51:57.377Z,101678.91
2022-11-25T23:54:24.737Z,101673.06
2022-11-25T23:56:51.103Z,101668.66
2022-11-25T23:59:17.424Z,101673.06
